sensor_id;sensor_type;location;lat;lon;timestamp;P1;durP1;ratioP1;P2;durP2;ratioP2
47053;SDS011;32811;52.382;5.270;2023-03-24T00:01:51;3.00;;;2.20;;
47053;SDS011;32811;52.382;5.270;2023-03-24T00:04:18;3.92;;;1.88;;
47053;SDS011;32811;52.382;5.270;2023-03-24T00:06:45;8.25;;;2.40;;
47053;SDS011;32811;52.382;5.270;2023-03-24T00:09:15;5.05;;;1.75;;
47053;SDS011;32811;52.382;5.270;2023-03-24T00:11:42;7.03;;;2.53;;
47053;SDS011;32811;52.382;5.270;2023-03-24T00:14:09;2.75;;;1.40;;
47053;SDS011;32811;52.382;5.270;2023-03-24T00:16:38;4.00;;;1.85;;
47053;SDS011;32811;52.382;5.270;2023-03-24T00:19:10;5.70;;;1.95;;
47053;SDS011;32811;52.382;5.270;2023-03-24T00:21:42;4.30;;;2.08;;
47053;SDS011;32811;52.382;5.270;2023-03-24T00:24:10;4.15;;;2.05;;
47053;SDS011;32811;52.382;5.270;2023-03-24T00:26:38;5.57;;;2.05;;
47053;SDS011;32811;52.382;5.270;2023-03-24T00:29:07;5.05;;;1.63;;
47053;SDS011;32811;52.382;5.270;2023-03-24T00:31:36;6.40;;;2.13;;
47053;SDS011;32811;52.382;5.270;2023-03-24T00:34:06;5.28;;;2.45;;
47053;SDS011;32811;52.382;5.270;2023-03-24T00:36:34;6.35;;;1.73;;
47053;SDS011;32811;52.382;5.270;2023-03-24T00:39:02;3.92;;;1.42;;
47053;SDS011;32811;52.382;5.270;2023-03-24T00:41:31;6.13;;;2.00;;
47053;SDS011;32811;52.382;5.270;2023-03-24T00:43:58;4.43;;;1.75;;
47053;SDS011;32811;52.382;5.270;2023-03-24T00:46:28;5.10;;;1.92;;
47053;SDS011;32811;52.382;5.270;2023-03-24T00:49:00;5.25;;;1.65;;
47053;SDS011;32811;52.382;5.270;2023-03-24T00:51:33;2.22;;;1.45;;
47053;SDS011;32811;52.382;5.270;2023-03-24T00:54:01;5.30;;;2.63;;
47053;SDS011;32811;52.382;5.270;2023-03-24T00:56:29;7.75;;;2.00;;
47053;SDS011;32811;52.382;5.270;2023-03-24T00:58:57;4.68;;;2.08;;
47053;SDS011;32811;52.382;5.270;2023-03-24T01:01:24;3.80;;;1.65;;
47053;SDS011;32811;52.382;5.270;2023-03-24T01:03:54;3.00;;;1.77;;
47053;SDS011;32811;52.382;5.270;2023-03-24T01:06:22;4.20;;;1.70;;
47053;SDS011;32811;52.382;5.270;2023-03-24T01:08:50;4.18;;;1.58;;
47053;SDS011;32811;52.382;5.270;2023-03-24T01:11:23;5.55;;;1.70;;
47053;SDS011;32811;52.382;5.270;2023-03-24T01:13:51;5.50;;;1.90;;
47053;SDS011;32811;52.382;5.270;2023-03-24T01:16:19;4.15;;;1.83;;
47053;SDS011;32811;52.382;5.270;2023-03-24T01:18:51;5.43;;;1.80;;
47053;SDS011;32811;52.382;5.270;2023-03-24T01:21:17;7.57;;;3.05;;
47053;SDS011;32811;52.382;5.270;2023-03-24T01:23:44;3.97;;;1.90;;
47053;SDS011;32811;52.382;5.270;2023-03-24T01:26:11;6.38;;;2.25;;
47053;SDS011;32811;52.382;5.270;2023-03-24T01:28:38;6.65;;;2.10;;
47053;SDS011;32811;52.382;5.270;2023-03-24T01:31:07;3.85;;;2.03;;
47053;SDS011;32811;52.382;5.270;2023-03-24T01:33:35;4.15;;;1.90;;
47053;SDS011;32811;52.382;5.270;2023-03-24T01:36:04;5.40;;;2.88;;
47053;SDS011;32811;52.382;5.270;2023-03-24T01:38:32;4.00;;;1.52;;
47053;SDS011;32811;52.382;5.270;2023-03-24T01:40:59;5.43;;;1.52;;
47053;SDS011;32811;52.382;5.270;2023-03-24T01:43:27;3.90;;;1.90;;
47053;SDS011;32811;52.382;5.270;2023-03-24T01:51:28;3.60;;;1.40;;
47053;SDS011;32811;52.382;5.270;2023-03-24T01:54:08;3.30;;;1.52;;
47053;SDS011;32811;52.382;5.270;2023-03-24T01:56:40;5.13;;;1.50;;
47053;SDS011;32811;52.382;5.270;2023-03-24T01:59:12;4.55;;;1.95;;
47053;SDS011;32811;52.382;5.270;2023-03-24T02:01:43;6.03;;;1.80;;
47053;SDS011;32811;52.382;5.270;2023-03-24T02:04:10;3.03;;;1.77;;
47053;SDS011;32811;52.382;5.270;2023-03-24T02:06:39;6.47;;;2.03;;
47053;SDS011;32811;52.382;5.270;2023-03-24T02:09:09;5.07;;;1.80;;
47053;SDS011;32811;52.382;5.270;2023-03-24T02:11:38;2.83;;;2.15;;
47053;SDS011;32811;52.382;5.270;2023-03-24T02:14:06;2.70;;;1.17;;
47053;SDS011;32811;52.382;5.270;2023-03-24T02:37:22;3.00;;;1.13;;
47053;SDS011;32811;52.382;5.270;2023-03-24T02:42:25;4.72;;;0.85;;
47053;SDS011;32811;52.382;5.270;2023-03-24T02:50:50;2.45;;;1.02;;
47053;SDS011;32811;52.382;5.270;2023-03-24T02:53:30;2.30;;;0.55;;
47053;SDS011;32811;52.382;5.270;2023-03-24T02:59:17;3.30;;;0.50;;
47053;SDS011;32811;52.382;5.270;2023-03-24T03:04:35;6.30;;;1.10;;
47053;SDS011;32811;52.382;5.270;2023-03-24T03:07:06;9.13;;;1.85;;
47053;SDS011;32811;52.382;5.270;2023-03-24T03:09:39;5.53;;;0.77;;
47053;SDS011;32811;52.382;5.270;2023-03-24T03:12:10;8.77;;;1.02;;
47053;SDS011;32811;52.382;5.270;2023-03-24T03:14:50;2.97;;;0.77;;
47053;SDS011;32811;52.382;5.270;2023-03-24T03:17:22;13.82;;;1.27;;
47053;SDS011;32811;52.382;5.270;2023-03-24T03:19:57;4.00;;;0.70;;
47053;SDS011;32811;52.382;5.270;2023-03-24T03:22:31;9.93;;;1.03;;
47053;SDS011;32811;52.382;5.270;2023-03-24T03:25:04;6.03;;;1.58;;
47053;SDS011;32811;52.382;5.270;2023-03-24T03:27:33;4.05;;;1.48;;
47053;SDS011;32811;52.382;5.270;2023-03-24T03:30:12;6.00;;;1.08;;
47053;SDS011;32811;52.382;5.270;2023-03-24T03:32:46;5.75;;;1.05;;
47053;SDS011;32811;52.382;5.270;2023-03-24T03:35:24;7.78;;;1.10;;
47053;SDS011;32811;52.382;5.270;2023-03-24T03:40:51;5.75;;;1.15;;
47053;SDS011;32811;52.382;5.270;2023-03-24T03:43:21;6.82;;;0.75;;
47053;SDS011;32811;52.382;5.270;2023-03-24T03:45:48;4.53;;;0.88;;
47053;SDS011;32811;52.382;5.270;2023-03-24T03:48:15;12.13;;;1.80;;
47053;SDS011;32811;52.382;5.270;2023-03-24T03:50:43;7.28;;;0.93;;
47053;SDS011;32811;52.382;5.270;2023-03-24T03:53:12;4.90;;;0.85;;
47053;SDS011;32811;52.382;5.270;2023-03-24T03:55:42;2.97;;;0.93;;
47053;SDS011;32811;52.382;5.270;2023-03-24T03:58:09;8.90;;;1.33;;
47053;SDS011;32811;52.382;5.270;2023-03-24T04:00:36;5.93;;;1.42;;
47053;SDS011;32811;52.382;5.270;2023-03-24T04:08:52;5.00;;;0.80;;
47053;SDS011;32811;52.382;5.270;2023-03-24T04:19:59;9.35;;;1.48;;
47053;SDS011;32811;52.382;5.270;2023-03-24T04:27:57;11.25;;;1.98;;
47053;SDS011;32811;52.382;5.270;2023-03-24T04:33:25;9.43;;;1.30;;
47053;SDS011;32811;52.382;5.270;2023-03-24T04:36:06;6.78;;;1.20;;
47053;SDS011;32811;52.382;5.270;2023-03-24T04:38:44;5.85;;;0.80;;
47053;SDS011;32811;52.382;5.270;2023-03-24T04:41:14;8.35;;;1.05;;
47053;SDS011;32811;52.382;5.270;2023-03-24T04:43:43;9.60;;;0.98;;
47053;SDS011;32811;52.382;5.270;2023-03-24T04:46:10;11.43;;;1.40;;
47053;SDS011;32811;52.382;5.270;2023-03-24T04:48:37;9.93;;;2.00;;
47053;SDS011;32811;52.382;5.270;2023-03-24T04:51:04;6.32;;;1.20;;
47053;SDS011;32811;52.382;5.270;2023-03-24T04:53:33;15.13;;;1.73;;
47053;SDS011;32811;52.382;5.270;2023-03-24T04:58:26;10.82;;;2.50;;
47053;SDS011;32811;52.382;5.270;2023-03-24T05:00:53;11.55;;;2.33;;
47053;SDS011;32811;52.382;5.270;2023-03-24T05:03:21;9.13;;;1.15;;
47053;SDS011;32811;52.382;5.270;2023-03-24T05:05:48;6.47;;;1.13;;
47053;SDS011;32811;52.382;5.270;2023-03-24T05:08:16;8.38;;;1.63;;
47053;SDS011;32811;52.382;5.270;2023-03-24T05:10:44;18.05;;;1.75;;
47053;SDS011;32811;52.382;5.270;2023-03-24T05:13:12;9.65;;;2.08;;
47053;SDS011;32811;52.382;5.270;2023-03-24T05:15:39;15.85;;;1.58;;
47053;SDS011;32811;52.382;5.270;2023-03-24T05:18:07;12.07;;;2.05;;
47053;SDS011;32811;52.382;5.270;2023-03-24T05:20:34;18.70;;;2.88;;
47053;SDS011;32811;52.382;5.270;2023-03-24T05:23:01;10.15;;;2.47;;
47053;SDS011;32811;52.382;5.270;2023-03-24T05:25:28;17.38;;;2.10;;
47053;SDS011;32811;52.382;5.270;2023-03-24T05:27:54;16.33;;;2.03;;
47053;SDS011;32811;52.382;5.270;2023-03-24T05:30:21;13.50;;;3.15;;
47053;SDS011;32811;52.382;5.270;2023-03-24T05:32:47;11.13;;;1.35;;
47053;SDS011;32811;52.382;5.270;2023-03-24T05:35:14;20.50;;;1.92;;
47053;SDS011;32811;52.382;5.270;2023-03-24T05:37:41;14.68;;;2.92;;
47053;SDS011;32811;52.382;5.270;2023-03-24T05:40:08;14.77;;;1.73;;
47053;SDS011;32811;52.382;5.270;2023-03-24T05:42:35;14.15;;;2.25;;
47053;SDS011;32811;52.382;5.270;2023-03-24T05:45:01;16.83;;;1.98;;
47053;SDS011;32811;52.382;5.270;2023-03-24T05:47:28;18.30;;;3.35;;
47053;SDS011;32811;52.382;5.270;2023-03-24T05:49:55;17.92;;;2.67;;
47053;SDS011;32811;52.382;5.270;2023-03-24T05:52:22;22.85;;;4.65;;
47053;SDS011;32811;52.382;5.270;2023-03-24T05:54:48;22.83;;;2.60;;
47053;SDS011;32811;52.382;5.270;2023-03-24T05:57:19;15.60;;;2.42;;
47053;SDS011;32811;52.382;5.270;2023-03-24T05:59:46;16.60;;;3.22;;
47053;SDS011;32811;52.382;5.270;2023-03-24T06:02:13;16.02;;;2.00;;
47053;SDS011;32811;52.382;5.270;2023-03-24T06:04:40;26.20;;;2.65;;
47053;SDS011;32811;52.382;5.270;2023-03-24T06:07:11;23.35;;;5.15;;
47053;SDS011;32811;52.382;5.270;2023-03-24T06:09:38;19.77;;;3.05;;
47053;SDS011;32811;52.382;5.270;2023-03-24T06:12:07;16.58;;;3.10;;
47053;SDS011;32811;52.382;5.270;2023-03-24T06:14:35;21.63;;;3.55;;
47053;SDS011;32811;52.382;5.270;2023-03-24T06:17:02;15.60;;;2.75;;
47053;SDS011;32811;52.382;5.270;2023-03-24T06:19:28;11.18;;;2.03;;
47053;SDS011;32811;52.382;5.270;2023-03-24T06:21:56;15.82;;;3.17;;
47053;SDS011;32811;52.382;5.270;2023-03-24T06:24:26;26.25;;;3.20;;
47053;SDS011;32811;52.382;5.270;2023-03-24T06:26:52;16.70;;;2.35;;
47053;SDS011;32811;52.382;5.270;2023-03-24T06:29:30;23.65;;;3.22;;
47053;SDS011;32811;52.382;5.270;2023-03-24T06:31:56;18.42;;;4.05;;
47053;SDS011;32811;52.382;5.270;2023-03-24T06:34:23;25.13;;;3.38;;
47053;SDS011;32811;52.382;5.270;2023-03-24T06:36:54;22.73;;;3.20;;
47053;SDS011;32811;52.382;5.270;2023-03-24T06:39:21;22.75;;;4.47;;
47053;SDS011;32811;52.382;5.270;2023-03-24T06:41:49;18.17;;;3.00;;
47053;SDS011;32811;52.382;5.270;2023-03-24T06:44:15;25.52;;;4.47;;
47053;SDS011;32811;52.382;5.270;2023-03-24T06:46:42;21.10;;;3.03;;
47053;SDS011;32811;52.382;5.270;2023-03-24T06:49:10;17.90;;;3.88;;
47053;SDS011;32811;52.382;5.270;2023-03-24T06:51:37;21.13;;;4.25;;
47053;SDS011;32811;52.382;5.270;2023-03-24T06:54:04;21.10;;;3.08;;
47053;SDS011;32811;52.382;5.270;2023-03-24T06:56:30;26.00;;;3.85;;
47053;SDS011;32811;52.382;5.270;2023-03-24T06:58:57;23.63;;;4.07;;
47053;SDS011;32811;52.382;5.270;2023-03-24T07:01:24;14.30;;;2.78;;
47053;SDS011;32811;52.382;5.270;2023-03-24T07:03:50;20.35;;;5.28;;
47053;SDS011;32811;52.382;5.270;2023-03-24T07:06:17;21.58;;;3.72;;
47053;SDS011;32811;52.382;5.270;2023-03-24T07:08:44;25.17;;;3.25;;
47053;SDS011;32811;52.382;5.270;2023-03-24T07:11:11;23.13;;;2.42;;
47053;SDS011;32811;52.382;5.270;2023-03-24T07:13:37;19.52;;;3.05;;
47053;SDS011;32811;52.382;5.270;2023-03-24T07:16:04;24.38;;;3.05;;
47053;SDS011;32811;52.382;5.270;2023-03-24T07:18:31;18.52;;;2.08;;
47053;SDS011;32811;52.382;5.270;2023-03-24T07:20:58;29.13;;;2.90;;
47053;SDS011;32811;52.382;5.270;2023-03-24T07:23:25;25.75;;;2.63;;
47053;SDS011;32811;52.382;5.270;2023-03-24T07:25:52;20.63;;;2.35;;
47053;SDS011;32811;52.382;5.270;2023-03-24T07:28:19;20.08;;;3.60;;
47053;SDS011;32811;52.382;5.270;2023-03-24T07:30:46;25.88;;;7.22;;
47053;SDS011;32811;52.382;5.270;2023-03-24T07:33:13;18.80;;;3.05;;
47053;SDS011;32811;52.382;5.270;2023-03-24T07:35:39;21.15;;;2.25;;
47053;SDS011;32811;52.382;5.270;2023-03-24T07:38:07;23.10;;;2.38;;
47053;SDS011;32811;52.382;5.270;2023-03-24T07:40:33;24.02;;;2.92;;
47053;SDS011;32811;52.382;5.270;2023-03-24T07:43:03;21.58;;;2.97;;
47053;SDS011;32811;52.382;5.270;2023-03-24T07:45:34;22.33;;;3.95;;
47053;SDS011;32811;52.382;5.270;2023-03-24T07:48:00;18.52;;;2.35;;
47053;SDS011;32811;52.382;5.270;2023-03-24T07:50:28;17.02;;;3.13;;
47053;SDS011;32811;52.382;5.270;2023-03-24T07:52:56;17.50;;;2.67;;
47053;SDS011;32811;52.382;5.270;2023-03-24T07:55:25;14.48;;;2.22;;
47053;SDS011;32811;52.382;5.270;2023-03-24T07:57:52;18.58;;;2.50;;
47053;SDS011;32811;52.382;5.270;2023-03-24T08:00:19;20.48;;;2.22;;
47053;SDS011;32811;52.382;5.270;2023-03-24T08:02:48;15.70;;;3.00;;
47053;SDS011;32811;52.382;5.270;2023-03-24T08:05:21;18.77;;;2.95;;
47053;SDS011;32811;52.382;5.270;2023-03-24T08:07:49;17.80;;;3.60;;
47053;SDS011;32811;52.382;5.270;2023-03-24T08:10:22;16.85;;;2.40;;
47053;SDS011;32811;52.382;5.270;2023-03-24T08:12:53;23.23;;;3.45;;
47053;SDS011;32811;52.382;5.270;2023-03-24T08:15:20;12.95;;;2.85;;
47053;SDS011;32811;52.382;5.270;2023-03-24T08:17:48;15.88;;;2.25;;
47053;SDS011;32811;52.382;5.270;2023-03-24T08:20:15;20.02;;;2.60;;
47053;SDS011;32811;52.382;5.270;2023-03-24T08:22:45;17.38;;;2.45;;
47053;SDS011;32811;52.382;5.270;2023-03-24T08:27:47;19.77;;;3.25;;
47053;SDS011;32811;52.382;5.270;2023-03-24T08:30:15;16.75;;;3.22;;
47053;SDS011;32811;52.382;5.270;2023-03-24T08:32:44;17.35;;;2.75;;
47053;SDS011;32811;52.382;5.270;2023-03-24T08:35:12;21.83;;;2.97;;
47053;SDS011;32811;52.382;5.270;2023-03-24T08:37:40;13.27;;;2.15;;
47053;SDS011;32811;52.382;5.270;2023-03-24T08:40:09;18.67;;;2.63;;
47053;SDS011;32811;52.382;5.270;2023-03-24T08:42:37;8.13;;;2.40;;
47053;SDS011;32811;52.382;5.270;2023-03-24T08:45:03;16.08;;;1.70;;
47053;SDS011;32811;52.382;5.270;2023-03-24T08:47:30;13.98;;;3.58;;
47053;SDS011;32811;52.382;5.270;2023-03-24T08:49:57;19.02;;;3.58;;
47053;SDS011;32811;52.382;5.270;2023-03-24T08:52:24;16.20;;;2.92;;
47053;SDS011;32811;52.382;5.270;2023-03-24T08:54:51;13.95;;;2.25;;
47053;SDS011;32811;52.382;5.270;2023-03-24T08:57:17;14.02;;;3.00;;
47053;SDS011;32811;52.382;5.270;2023-03-24T08:59:44;14.52;;;2.45;;
47053;SDS011;32811;52.382;5.270;2023-03-24T09:02:13;15.63;;;2.08;;
47053;SDS011;32811;52.382;5.270;2023-03-24T09:04:40;17.08;;;2.03;;
47053;SDS011;32811;52.382;5.270;2023-03-24T09:07:11;9.82;;;1.65;;
47053;SDS011;32811;52.382;5.270;2023-03-24T09:09:37;18.45;;;2.20;;
47053;SDS011;32811;52.382;5.270;2023-03-24T09:12:05;15.48;;;3.40;;
47053;SDS011;32811;52.382;5.270;2023-03-24T09:14:32;14.40;;;2.35;;
47053;SDS011;32811;52.382;5.270;2023-03-24T09:16:59;22.67;;;3.67;;
47053;SDS011;32811;52.382;5.270;2023-03-24T09:19:25;17.00;;;2.72;;
47053;SDS011;32811;52.382;5.270;2023-03-24T09:21:52;15.60;;;2.22;;
47053;SDS011;32811;52.382;5.270;2023-03-24T09:24:19;24.33;;;3.72;;
47053;SDS011;32811;52.382;5.270;2023-03-24T09:26:45;13.48;;;1.75;;
47053;SDS011;32811;52.382;5.270;2023-03-24T09:29:12;16.10;;;2.65;;
47053;SDS011;32811;52.382;5.270;2023-03-24T09:31:38;15.85;;;3.42;;
47053;SDS011;32811;52.382;5.270;2023-03-24T09:34:05;14.02;;;2.03;;
47053;SDS011;32811;52.382;5.270;2023-03-24T09:36:32;9.73;;;2.53;;
47053;SDS011;32811;52.382;5.270;2023-03-24T09:38:58;25.95;;;2.20;;
47053;SDS011;32811;52.382;5.270;2023-03-24T09:41:26;13.75;;;2.15;;
47053;SDS011;32811;52.382;5.270;2023-03-24T09:46:45;21.67;;;3.17;;
47053;SDS011;32811;52.382;5.270;2023-03-24T09:49:15;10.75;;;1.70;;
47053;SDS011;32811;52.382;5.270;2023-03-24T09:51:48;9.10;;;2.30;;
47053;SDS011;32811;52.382;5.270;2023-03-24T09:56:54;10.02;;;1.88;;
47053;SDS011;32811;52.382;5.270;2023-03-24T10:02:01;9.38;;;1.80;;
47053;SDS011;32811;52.382;5.270;2023-03-24T10:07:06;10.00;;;1.45;;
47053;SDS011;32811;52.382;5.270;2023-03-24T10:09:41;11.40;;;2.33;;
47053;SDS011;32811;52.382;5.270;2023-03-24T10:25:25;17.85;;;1.80;;
47053;SDS011;32811;52.382;5.270;2023-03-24T10:30:38;8.85;;;1.67;;
47053;SDS011;32811;52.382;5.270;2023-03-24T10:33:10;16.33;;;2.30;;
47053;SDS011;32811;52.382;5.270;2023-03-24T10:35:39;16.17;;;1.85;;
47053;SDS011;32811;52.382;5.270;2023-03-24T10:38:19;13.70;;;1.77;;
47053;SDS011;32811;52.382;5.270;2023-03-24T10:40:47;15.45;;;2.38;;
47053;SDS011;32811;52.382;5.270;2023-03-24T10:43:14;12.43;;;2.15;;
47053;SDS011;32811;52.382;5.270;2023-03-24T10:45:46;11.30;;;2.25;;
47053;SDS011;32811;52.382;5.270;2023-03-24T10:48:32;17.52;;;3.47;;
47053;SDS011;32811;52.382;5.270;2023-03-24T10:51:01;20.38;;;2.47;;
47053;SDS011;32811;52.382;5.270;2023-03-24T10:53:28;16.08;;;2.13;;
47053;SDS011;32811;52.382;5.270;2023-03-24T10:55:55;10.55;;;2.10;;
47053;SDS011;32811;52.382;5.270;2023-03-24T10:58:29;10.27;;;2.10;;
47053;SDS011;32811;52.382;5.270;2023-03-24T11:01:04;15.63;;;1.98;;
47053;SDS011;32811;52.382;5.270;2023-03-24T11:03:44;13.57;;;2.20;;
47053;SDS011;32811;52.382;5.270;2023-03-24T11:06:14;16.60;;;2.42;;
47053;SDS011;32811;52.382;5.270;2023-03-24T11:08:43;13.25;;;2.00;;
47053;SDS011;32811;52.382;5.270;2023-03-24T11:13:52;5.90;;;2.03;;
47053;SDS011;32811;52.382;5.270;2023-03-24T11:16:26;10.38;;;1.65;;
47053;SDS011;32811;52.382;5.270;2023-03-24T11:19:17;17.83;;;2.08;;
47053;SDS011;32811;52.382;5.270;2023-03-24T11:21:47;12.00;;;1.33;;
47053;SDS011;32811;52.382;5.270;2023-03-24T11:24:16;13.63;;;1.70;;
47053;SDS011;32811;52.382;5.270;2023-03-24T11:26:53;16.02;;;3.60;;
47053;SDS011;32811;52.382;5.270;2023-03-24T11:29:28;7.68;;;1.60;;
47053;SDS011;32811;52.382;5.270;2023-03-24T11:31:58;8.30;;;1.50;;
47053;SDS011;32811;52.382;5.270;2023-03-24T11:34:31;13.00;;;1.63;;
47053;SDS011;32811;52.382;5.270;2023-03-24T11:37:10;5.97;;;1.02;;
47053;SDS011;32811;52.382;5.270;2023-03-24T11:39:40;11.98;;;1.75;;
47053;SDS011;32811;52.382;5.270;2023-03-24T11:52:43;6.80;;;1.45;;
47053;SDS011;32811;52.382;5.270;2023-03-24T11:55:15;12.43;;;2.13;;
47053;SDS011;32811;52.382;5.270;2023-03-24T11:57:57;11.27;;;1.65;;
47053;SDS011;32811;52.382;5.270;2023-03-24T12:00:32;11.00;;;1.90;;
47053;SDS011;32811;52.382;5.270;2023-03-24T12:03:08;10.88;;;1.40;;
47053;SDS011;32811;52.382;5.270;2023-03-24T12:05:41;8.95;;;1.85;;
47053;SDS011;32811;52.382;5.270;2023-03-24T12:11:06;11.07;;;1.85;;
47053;SDS011;32811;52.382;5.270;2023-03-24T12:13:40;14.20;;;1.60;;
47053;SDS011;32811;52.382;5.270;2023-03-24T12:24:45;11.40;;;2.20;;
47053;SDS011;32811;52.382;5.270;2023-03-24T12:30:01;8.02;;;1.35;;
47053;SDS011;32811;52.382;5.270;2023-03-24T12:32:34;9.98;;;0.90;;
47053;SDS011;32811;52.382;5.270;2023-03-24T12:35:19;7.70;;;1.45;;
47053;SDS011;32811;52.382;5.270;2023-03-24T12:37:57;5.85;;;1.08;;
47053;SDS011;32811;52.382;5.270;2023-03-24T12:43:26;8.98;;;1.60;;
47053;SDS011;32811;52.382;5.270;2023-03-24T12:52:15;5.63;;;1.30;;
47053;SDS011;32811;52.382;5.270;2023-03-24T12:57:18;11.85;;;1.05;;
47053;SDS011;32811;52.382;5.270;2023-03-24T13:02:28;4.35;;;0.95;;
47053;SDS011;32811;52.382;5.270;2023-03-24T13:04:59;5.88;;;1.27;;
47053;SDS011;32811;52.382;5.270;2023-03-24T13:07:31;6.85;;;0.77;;
47053;SDS011;32811;52.382;5.270;2023-03-24T13:10:05;8.88;;;1.50;;
47053;SDS011;32811;52.382;5.270;2023-03-24T13:20:26;7.30;;;1.08;;
47053;SDS011;32811;52.382;5.270;2023-03-24T13:31:23;11.25;;;1.60;;
47053;SDS011;32811;52.382;5.270;2023-03-24T13:33:52;8.48;;;1.08;;
47053;SDS011;32811;52.382;5.270;2023-03-24T13:36:27;10.25;;;1.40;;
47053;SDS011;32811;52.382;5.270;2023-03-24T13:39:18;10.43;;;1.88;;
47053;SDS011;32811;52.382;5.270;2023-03-24T13:41:48;6.53;;;1.80;;
47053;SDS011;32811;52.382;5.270;2023-03-24T13:44:18;10.52;;;1.20;;
47053;SDS011;32811;52.382;5.270;2023-03-24T13:50:10;5.35;;;1.15;;
47053;SDS011;32811;52.382;5.270;2023-03-24T13:52:38;12.38;;;2.33;;
47053;SDS011;32811;52.382;5.270;2023-03-24T13:55:14;11.85;;;2.88;;
47053;SDS011;32811;52.382;5.270;2023-03-24T13:58:10;9.07;;;1.30;;
47053;SDS011;32811;52.382;5.270;2023-03-24T14:04:13;15.68;;;2.00;;
47053;SDS011;32811;52.382;5.270;2023-03-24T14:09:20;5.53;;;1.02;;
47053;SDS011;32811;52.382;5.270;2023-03-24T14:14:23;8.82;;;0.98;;
47053;SDS011;32811;52.382;5.270;2023-03-24T14:17:09;6.13;;;0.85;;
47053;SDS011;32811;52.382;5.270;2023-03-24T14:25:03;12.65;;;1.33;;
47053;SDS011;32811;52.382;5.270;2023-03-24T14:27:43;4.78;;;1.38;;
47053;SDS011;32811;52.382;5.270;2023-03-24T14:30:24;8.05;;;1.15;;
47053;SDS011;32811;52.382;5.270;2023-03-24T14:32:56;3.70;;;0.70;;
47053;SDS011;32811;52.382;5.270;2023-03-24T14:38:01;2.88;;;0.57;;
47053;SDS011;32811;52.382;5.270;2023-03-24T14:40:37;5.88;;;1.05;;
47053;SDS011;32811;52.382;5.270;2023-03-24T14:45:51;5.80;;;0.75;;
47053;SDS011;32811;52.382;5.270;2023-03-24T14:48:22;5.13;;;0.73;;
47053;SDS011;32811;52.382;5.270;2023-03-24T14:50:52;7.32;;;0.70;;
47053;SDS011;32811;52.382;5.270;2023-03-24T14:53:19;6.65;;;0.60;;
47053;SDS011;32811;52.382;5.270;2023-03-24T14:55:47;6.15;;;1.00;;
47053;SDS011;32811;52.382;5.270;2023-03-24T14:58:22;8.35;;;1.40;;
47053;SDS011;32811;52.382;5.270;2023-03-24T15:00:59;5.32;;;0.90;;
47053;SDS011;32811;52.382;5.270;2023-03-24T15:06:16;4.72;;;0.85;;
47053;SDS011;32811;52.382;5.270;2023-03-24T15:08:54;6.68;;;0.95;;
47053;SDS011;32811;52.382;5.270;2023-03-24T15:11:33;15.18;;;1.23;;
47053;SDS011;32811;52.382;5.270;2023-03-24T15:14:05;7.07;;;1.25;;
47053;SDS011;32811;52.382;5.270;2023-03-24T15:16:39;5.20;;;0.90;;
47053;SDS011;32811;52.382;5.270;2023-03-24T15:19:09;7.65;;;0.80;;
47053;SDS011;32811;52.382;5.270;2023-03-24T15:21:51;8.40;;;0.88;;
47053;SDS011;32811;52.382;5.270;2023-03-24T15:29:32;6.53;;;0.82;;
47053;SDS011;32811;52.382;5.270;2023-03-24T15:31:59;6.40;;;0.75;;
47053;SDS011;32811;52.382;5.270;2023-03-24T15:34:36;5.35;;;0.88;;
47053;SDS011;32811;52.382;5.270;2023-03-24T15:37:18;6.95;;;0.90;;
47053;SDS011;32811;52.382;5.270;2023-03-24T15:39:53;5.07;;;0.95;;
47053;SDS011;32811;52.382;5.270;2023-03-24T15:42:30;9.18;;;1.20;;
47053;SDS011;32811;52.382;5.270;2023-03-24T15:45:05;12.25;;;1.20;;
47053;SDS011;32811;52.382;5.270;2023-03-24T15:47:37;9.50;;;1.00;;
47053;SDS011;32811;52.382;5.270;2023-03-24T15:50:26;11.02;;;0.95;;
47053;SDS011;32811;52.382;5.270;2023-03-24T15:55:40;7.63;;;0.80;;
47053;SDS011;32811;52.382;5.270;2023-03-24T15:58:24;10.75;;;1.80;;
47053;SDS011;32811;52.382;5.270;2023-03-24T16:00:55;11.57;;;1.65;;
47053;SDS011;32811;52.382;5.270;2023-03-24T16:03:31;11.82;;;1.20;;
47053;SDS011;32811;52.382;5.270;2023-03-24T16:05:59;7.57;;;0.80;;
47053;SDS011;32811;52.382;5.270;2023-03-24T16:11:03;8.70;;;2.45;;
47053;SDS011;32811;52.382;5.270;2023-03-24T16:13:33;6.20;;;1.20;;
47053;SDS011;32811;52.382;5.270;2023-03-24T16:16:09;8.05;;;1.00;;
47053;SDS011;32811;52.382;5.270;2023-03-24T16:18:49;9.93;;;1.15;;
47053;SDS011;32811;52.382;5.270;2023-03-24T16:23:54;9.27;;;1.20;;
47053;SDS011;32811;52.382;5.270;2023-03-24T16:26:23;9.02;;;1.05;;
47053;SDS011;32811;52.382;5.270;2023-03-24T16:28:58;4.18;;;1.00;;
47053;SDS011;32811;52.382;5.270;2023-03-24T16:31:33;7.28;;;1.65;;
47053;SDS011;32811;52.382;5.270;2023-03-24T16:34:00;8.05;;;1.60;;
47053;SDS011;32811;52.382;5.270;2023-03-24T16:36:27;10.65;;;1.58;;
47053;SDS011;32811;52.382;5.270;2023-03-24T16:38:54;8.02;;;1.73;;
47053;SDS011;32811;52.382;5.270;2023-03-24T16:41:22;6.25;;;2.17;;
47053;SDS011;32811;52.382;5.270;2023-03-24T16:43:50;3.70;;;0.80;;
47053;SDS011;32811;52.382;5.270;2023-03-24T16:48:48;7.68;;;1.30;;
47053;SDS011;32811;52.382;5.270;2023-03-24T16:51:15;9.35;;;1.33;;
47053;SDS011;32811;52.382;5.270;2023-03-24T16:53:42;8.00;;;1.23;;
47053;SDS011;32811;52.382;5.270;2023-03-24T16:56:14;11.07;;;1.50;;
47053;SDS011;32811;52.382;5.270;2023-03-24T16:58:43;14.80;;;1.77;;
47053;SDS011;32811;52.382;5.270;2023-03-24T17:01:19;8.85;;;1.20;;
47053;SDS011;32811;52.382;5.270;2023-03-24T17:03:54;8.48;;;1.15;;
47053;SDS011;32811;52.382;5.270;2023-03-24T17:06:22;6.60;;;0.82;;
47053;SDS011;32811;52.382;5.270;2023-03-24T17:08:50;6.75;;;1.92;;
47053;SDS011;32811;52.382;5.270;2023-03-24T17:14:15;13.00;;;2.13;;
47053;SDS011;32811;52.382;5.270;2023-03-24T17:16:42;10.80;;;2.00;;
47053;SDS011;32811;52.382;5.270;2023-03-24T17:19:11;15.55;;;1.67;;
47053;SDS011;32811;52.382;5.270;2023-03-24T17:21:40;8.82;;;1.00;;
47053;SDS011;32811;52.382;5.270;2023-03-24T17:24:10;11.80;;;1.45;;
47053;SDS011;32811;52.382;5.270;2023-03-24T17:26:38;8.75;;;0.85;;
47053;SDS011;32811;52.382;5.270;2023-03-24T17:29:07;8.75;;;1.98;;
47053;SDS011;32811;52.382;5.270;2023-03-24T17:31:36;9.30;;;1.05;;
47053;SDS011;32811;52.382;5.270;2023-03-24T17:34:03;9.30;;;1.30;;
47053;SDS011;32811;52.382;5.270;2023-03-24T17:36:46;7.60;;;1.17;;
47053;SDS011;32811;52.382;5.270;2023-03-24T17:39:15;9.10;;;1.00;;
47053;SDS011;32811;52.382;5.270;2023-03-24T17:41:43;11.40;;;0.80;;
47053;SDS011;32811;52.382;5.270;2023-03-24T17:44:09;7.70;;;1.20;;
47053;SDS011;32811;52.382;5.270;2023-03-24T17:46:36;8.77;;;1.30;;
47053;SDS011;32811;52.382;5.270;2023-03-24T17:49:03;11.93;;;1.95;;
47053;SDS011;32811;52.382;5.270;2023-03-24T17:51:30;10.75;;;1.25;;
47053;SDS011;32811;52.382;5.270;2023-03-24T17:53:56;10.57;;;1.60;;
47053;SDS011;32811;52.382;5.270;2023-03-24T17:56:23;9.07;;;1.50;;
47053;SDS011;32811;52.382;5.270;2023-03-24T17:58:50;16.20;;;2.05;;
47053;SDS011;32811;52.382;5.270;2023-03-24T18:01:20;10.15;;;1.20;;
47053;SDS011;32811;52.382;5.270;2023-03-24T18:03:47;9.65;;;1.42;;
47053;SDS011;32811;52.382;5.270;2023-03-24T18:06:15;10.73;;;1.00;;
47053;SDS011;32811;52.382;5.270;2023-03-24T18:08:42;14.02;;;1.65;;
47053;SDS011;32811;52.382;5.270;2023-03-24T18:11:10;8.00;;;1.20;;
47053;SDS011;32811;52.382;5.270;2023-03-24T18:13:38;5.95;;;1.67;;
47053;SDS011;32811;52.382;5.270;2023-03-24T18:16:05;8.80;;;1.30;;
47053;SDS011;32811;52.382;5.270;2023-03-24T18:18:46;9.77;;;1.08;;